Last 24 Hours

Thomas Mountain

10 Minute Data | America/Los_Angeles
as of 8/30/26 9:25 PM PDT
Date & Time Temp (°F) Dew Pt (°F) RH (%) Wind Spd (mph) Wind Dir (°) Wind Gust (mph) Wind Gst Dir (°) Daily Max Temp (°F) Daily Min Temp (°F)
8/30/26 - 2120 68.8 45.8 44 4.6 NW | 306 7.0 WNW | 294 84.1 68.3
8/30/26 - 2110 69.2 44.5 41 4.8 NW | 308 9.4 NNW | 332 84.1 68.3
8/30/26 - 2100 69.4 41.6 36 6.8 NW | 308 12.2 WNW | 290 84.1 68.3
8/30/26 - 2050 69.2 38.7 33 6.3 NW | 306 11.4 WNW | 303 84.1 68.3
8/30/26 - 2040 69.3 37.1 31 6.0 NW | 320 11.8 NW | 308 84.1 68.3
8/30/26 - 2030 69.5 37.7 31 6.1 NW | 318 13.4 NNW | 346 84.1 68.3
8/30/26 - 2020 69.5 38.7 32 4.4 WNW | 298 8.6 WNW | 302 84.1 68.3
8/30/26 - 2010 69.7 39.5 33 4.7 WNW | 303 8.8 WNW | 294 84.1 68.3
8/30/26 - 2000 69.8 40.2 34 5.7 WNW | 299 11.6 WNW | 293 84.1 68.3
8/30/26 - 1950 69.9 40.8 35 5.7 NW | 306 10.3 W | 262 84.1 68.3
8/30/26 - 1940 70.2 41.3 35 5.0 WNW | 298 9.1 WNW | 291 84.1 68.3
8/30/26 - 1930 70.8 41.1 34 6.8 WNW | 283 10.4 WNW | 282 84.1 68.3
8/30/26 - 1920 71.2 40.9 33 6.9 W | 271 11.6 W | 276 84.1 68.3
8/30/26 - 1910 72.0 40.2 32 8.6 WSW | 256 15.5 W | 265 84.1 68.3
8/30/26 - 1900 72.8 40.8 31 10.5 WSW | 252 15.6 WSW | 256 84.1 68.3
8/30/26 - 1850 73.6 41.8 32 10.4 WSW | 251 17.4 WSW | 254 84.1 68.3
8/30/26 - 1840 74.1 42.5 32 11.9 WSW | 249 18.3 WSW | 238 84.1 68.3
8/30/26 - 1830 74.7 42.9 32 13.1 WSW | 254 20.8 WSW | 258 84.1 68.3
8/30/26 - 1820 75.4 43.5 32 13.6 WSW | 248 20.4 WSW | 253 84.1 68.3
8/30/26 - 1810 75.7 44.5 33 13.8 WSW | 250 22.4 W | 261 84.1 68.3
8/30/26 - 1800 76.2 44.8 33 13.8 WSW | 246 21.3 WSW | 243 84.1 68.3
8/30/26 - 1750 76.7 43.5 31 14.4 WSW | 249 21.5 WSW | 249 84.1 68.3
8/30/26 - 1740 77.2 43.4 30 12.6 WSW | 251 20.4 WSW | 240 84.1 68.3
8/30/26 - 1730 77.3 43.6 30 13.4 WSW | 252 21.3 WSW | 249 84.1 68.3
8/30/26 - 1720 77.9 44.2 30 12.8 WSW | 250 20.7 WSW | 255 84.1 68.3
8/30/26 - 1710 78.4 45.4 31 12.6 WSW | 251 19.8 WSW | 246 84.1 68.3
8/30/26 - 1700 78.2 46.2 32 13.3 W | 259 20.5 WSW | 252 84.1 68.3
8/30/26 - 1650 78.8 46.8 32 14.1 WSW | 245 21.6 WSW | 255 84.1 68.3
8/30/26 - 1640 79.4 47.0 32 14.0 WSW | 247 22.9 WSW | 253 84.1 68.3
8/30/26 - 1630 79.3 47.0 32 12.8 WSW | 250 19.9 SW | 235 84.1 68.3
8/30/26 - 1620 79.2 46.5 32 12.8 WSW | 255 22.9 WSW | 247 84.1 68.3
8/30/26 - 1610 79.6 46.4 31 12.0 WSW | 258 22.5 WSW | 247 84.1 68.3
8/30/26 - 1600 80.2 46.5 31 13.4 WSW | 256 23.7 WSW | 246 84.1 68.3
8/30/26 - 1550 80.9 47.1 31 14.7 WSW | 241 22.7 WSW | 248 84.1 68.3
8/30/26 - 1540 81.1 47.6 31 13.9 WSW | 246 23.0 W | 265 84.1 68.3
8/30/26 - 1530 80.4 47.8 32 14.4 WSW | 241 23.8 WSW | 244 84.1 68.3
8/30/26 - 1520 80.6 48.4 32 13.9 WSW | 249 23.6 WSW | 245 84.1 68.3
8/30/26 - 1510 80.8 48.9 33 14.9 WSW | 242 21.7 WSW | 246 84.1 68.3
8/30/26 - 1500 82.1 49.2 32 14.6 WSW | 242 20.8 WSW | 242 84.1 68.3
8/30/26 - 1450 81.2 49.4 33 13.2 WSW | 246 20.6 SW | 236 84.1 68.3
8/30/26 - 1440 82.9 49.8 32 13.7 WSW | 238 23.7 WSW | 249 84.1 68.3
8/30/26 - 1430 82.2 49.1 32 14.1 WSW | 244 22.1 WSW | 238 84.1 68.3
8/30/26 - 1420 83.0 48.8 30 13.1 SW | 231 19.6 SW | 226 84.1 68.3
8/30/26 - 1410 82.3 48.0 30 14.1 SW | 236 24.8 WSW | 248 84.0 68.3
8/30/26 - 1400 82.3 47.4 30 11.5 SW | 234 20.8 SW | 220 84.0 68.3
8/30/26 - 1350 81.4 46.7 30 12.9 WSW | 238 25.6 W | 267 82.4 68.3
8/30/26 - 1340 81.2 46.1 29 12.6 WSW | 248 21.0 WSW | 257 82.1 68.3
8/30/26 - 1330 80.6 45.8 29 10.3 WSW | 254 19.7 WSW | 248 81.7 68.3
8/30/26 - 1320 80.3 46.0 30 12.4 WSW | 254 23.4 WSW | 242 81.7 68.3
8/30/26 - 1310 80.5 45.7 29 12.5 WSW | 250 20.9 WSW | 244 81.7 68.3
8/30/26 - 1300 80.1 45.4 29 12.8 WSW | 252 20.7 WSW | 245 81.6 68.3
8/30/26 - 1250 79.8 45.0 29 12.3 WSW | 242 20.8 WSW | 248 81.6 68.3
8/30/26 - 1240 79.5 44.9 29 10.4 WSW | 248 21.0 WSW | 253 81.6 68.3
8/30/26 - 1230 79.6 44.7 29 12.0 WSW | 239 17.3 SW | 220 81.6 68.3
8/30/26 - 1220 79.8 44.8 29 12.5 WSW | 244 20.0 SW | 234 81.6 68.3
8/30/26 - 1210 80.5 44.6 28 11.3 SW | 228 20.0 WSW | 248 81.6 68.3
8/30/26 - 1200 80.1 44.4 28 12.0 SW | 230 18.4 SW | 215 81.1 68.3
8/30/26 - 1150 79.4 44.7 29 12.7 WSW | 246 19.4 WSW | 249 81.0 68.3
8/30/26 - 1140 79.3 44.8 30 12.9 SW | 223 20.1 WSW | 254 81.0 68.3
8/30/26 - 1130 80.1 45.2 29 12.4 SW | 229 20.4 SW | 220 81.0 68.3
8/30/26 - 1120 79.8 45.0 29 13.5 WSW | 237 21.0 WSW | 246 81.0 68.3
8/30/26 - 1110 80.1 44.8 29 12.6 SW | 231 20.3 SSW | 208 81.0 68.3
8/30/26 - 1100 79.6 44.2 29 12.5 SW | 225 21.6 SW | 222 80.4 68.3
8/30/26 - 1050 79.5 43.7 28 12.5 SW | 218 20.2 SW | 225 80.1 68.3
8/30/26 - 1040 77.6 44.9 31 10.8 WSW | 240 17.5 WSW | 245 78.9 68.3
8/30/26 - 1030 78.0 45.4 32 10.5 WSW | 252 18.4 SW | 236 78.6 68.3
8/30/26 - 1020 77.8 45.6 32 7.4 W | 262 14.3 WNW | 299 78.5 68.3
8/30/26 - 1010 77.3 45.4 32 9.4 WSW | 245 15.0 WSW | 249 78.0 68.3
8/30/26 - 1000 77.1 44.7 32 10.6 WSW | 242 18.3 WSW | 253 77.7 68.3
8/30/26 - 0950 76.7 44.6 32 9.0 WSW | 244 17.0 WSW | 247 77.5 68.3
8/30/26 - 0940 76.4 44.9 33 10.0 WSW | 242 17.1 WSW | 246 77.0 68.3
8/30/26 - 0930 76.2 45.6 34 9.0 WSW | 239 13.6 W | 261 76.6 68.3
8/30/26 - 0920 75.5 45.6 34 8.6 WSW | 240 12.6 WSW | 252 76.1 68.3
8/30/26 - 0910 74.8 45.4 35 7.5 WSW | 246 12.1 WSW | 242 75.2 68.3
8/30/26 - 0900 74.2 45.3 36 6.2 WSW | 246 12.4 WSW | 250 74.5 68.3
8/30/26 - 0850 73.1 45.4 37 6.1 WSW | 245 10.6 WSW | 249 73.7 68.3
8/30/26 - 0840 72.2 45.3 38 5.3 WSW | 252 9.4 WSW | 247 72.6 68.3
8/30/26 - 0830 71.5 45.0 39 6.1 WSW | 250 8.8 WSW | 246 72.0 68.3
8/30/26 - 0820 71.0 45.0 39 4.7 WSW | 250 7.7 WSW | 258 71.3 68.3
8/30/26 - 0810 70.6 44.9 40 3.6 WSW | 243 6.1 SW | 231 71.3 68.3
8/30/26 - 0800 69.9 44.8 40 4.3 WSW | 241 6.7 WSW | 245 71.3 68.3
8/30/26 - 0750 69.7 44.8 41 4.3 WSW | 243 6.6 W | 259 71.3 68.3
8/30/26 - 0740 69.5 44.6 41 3.8 WSW | 249 6.1 WSW | 249 71.3 68.3
8/30/26 - 0730 69.4 44.2 40 3.2 WSW | 249 6.0 WSW | 240 71.3 68.3
8/30/26 - 0720 69.0 43.9 40 4.0 W | 272 7.7 W | 277 71.3 68.3
8/30/26 - 0710 68.7 44.1 41 4.0 W | 265 6.4 W | 277 71.3 68.3
8/30/26 - 0700 68.4 44.1 41 4.7 W | 273 7.4 WNW | 282 71.3 68.3
8/30/26 - 0650 68.6 44.2 41 5.3 W | 263 9.9 WSW | 256 71.3 68.3
8/30/26 - 0640 68.5 44.0 41 5.8 W | 272 9.4 W | 272 71.3 68.3
8/30/26 - 0630 68.5 43.7 41 4.4 WNW | 284 7.9 W | 261 71.3 68.3
8/30/26 - 0620 68.5 43.6 41 3.6 WNW | 293 7.5 WNW | 301 71.3 68.3
8/30/26 - 0610 68.4 44.1 41 2.7 WNW | 302 6.4 W | 275 71.3 68.3
8/30/26 - 0600 68.5 44.7 42 2.4 NW | 312 5.8 WNW | 292 71.3 68.4
8/30/26 - 0550 68.5 45.5 43 4.0 NW | 307 7.2 W | 279 71.3 68.4
8/30/26 - 0540 68.9 46.0 44 4.2 WNW | 286 8.7 W | 275 71.3 68.6
8/30/26 - 0530 68.8 46.3 45 3.5 W | 270 8.3 WSW | 258 71.3 68.6
8/30/26 - 0520 69.0 46.5 45 3.9 WNW | 288 9.1 W | 272 71.3 68.8
8/30/26 - 0510 69.2 46.7 45 6.7 W | 280 13.0 W | 280 71.3 69.0
8/30/26 - 0500 69.2 46.9 45 7.1 W | 271 13.5 W | 260 71.3 69.0
8/30/26 - 0450 69.2 47.3 45 7.9 W | 262 13.8 W | 266 71.3 69.0
8/30/26 - 0440 69.2 47.7 46 9.2 WSW | 257 18.8 W | 273 71.3 69.0
8/30/26 - 0430 69.1 48.3 47 9.0 W | 261 16.6 W | 270 71.3 69.0
8/30/26 - 0420 69.2 48.7 48 12.1 W | 259 20.4 W | 280 71.3 69.1
8/30/26 - 0410 69.2 49.0 49 10.8 W | 269 19.0 W | 265 71.3 69.1
8/30/26 - 0400 69.3 49.4 49 10.2 W | 274 19.1 W | 266 71.3 69.1
8/30/26 - 0350 69.4 49.6 49 11.4 W | 276 18.6 WNW | 291 71.3 69.2
8/30/26 - 0340 69.4 49.4 49 11.4 W | 275 18.5 WNW | 287 71.3 69.2
8/30/26 - 0330 69.4 49.2 48 10.8 W | 275 17.8 W | 281 71.3 69.2
8/30/26 - 0320 69.5 48.9 48 11.0 W | 276 16.9 W | 271 71.3 69.2
8/30/26 - 0310 69.4 48.4 47 8.8 W | 278 18.8 W | 279 71.3 69.2
8/30/26 - 0300 69.6 48.0 46 9.4 W | 276 18.0 WNW | 292 71.3 69.2
8/30/26 - 0250 69.6 47.8 46 10.4 W | 278 18.3 W | 272 71.3 69.2
8/30/26 - 0240 69.3 47.7 46 8.8 W | 273 15.6 WSW | 255 71.3 69.2
8/30/26 - 0230 69.8 47.9 46 8.9 W | 267 16.3 WNW | 287 71.3 69.3
8/30/26 - 0220 69.8 48.4 46 9.1 W | 279 17.0 W | 281 71.3 69.3
8/30/26 - 0210 69.5 49.2 48 7.2 WNW | 285 15.0 WNW | 284 71.3 69.3
8/30/26 - 0200 69.8 49.5 48 7.6 WNW | 284 12.9 WNW | 300 71.3 69.6
8/30/26 - 0150 70.1 49.1 47 7.9 W | 278 13.0 WNW | 285 71.3 69.9
8/30/26 - 0140 70.4 49.1 47 7.5 W | 277 12.7 W | 265 71.3 70.2
8/30/26 - 0130 70.5 49.0 46 6.9 W | 273 12.1 W | 276 71.3 70.3
8/30/26 - 0120 70.8 49.0 46 6.5 W | 274 9.3 W | 277 71.3 70.5
8/30/26 - 0110 71.0 49.0 46 7.2 W | 274 11.1 W | 274 71.3 70.9
8/30/26 - 0100 71.3 48.6 45 7.7 W | 274 12.6 W | 276 87.0 69.2
8/30/26 - 0050 71.4 48.3 44 7.8 W | 271 12.9 WSW | 255 87.0 69.2
8/30/26 - 0040 71.3 48.0 44 6.4 W | 266 13.2 WNW | 294 87.0 69.2
8/30/26 - 0030 71.3 47.8 43 5.2 W | 269 11.6 WSW | 243 87.0 69.2
8/30/26 - 0020 71.2 48.5 44 5.0 WNW | 294 9.9 NW | 318 87.0 69.2
8/30/26 - 0010 71.5 49.8 46 6.1 WNW | 291 12.1 WNW | 282 87.0 69.2
8/30/26 - 0000 71.8 51.1 48 7.6 WNW | 285 13.7 W | 275 87.0 69.2
8/29/26 - 2350 72.0 51.3 48 9.0 W | 280 14.2 W | 268 87.0 69.2
8/29/26 - 2340 71.9 51.0 48 7.6 WNW | 282 11.8 WNW | 284 87.0 69.2
8/29/26 - 2330 71.8 50.6 47 5.4 W | 281 11.4 W | 273 87.0 69.2
8/29/26 - 2320 72.0 51.2 48 6.3 WNW | 282 10.2 WNW | 286 87.0 69.2
8/29/26 - 2310 72.0 51.0 48 6.0 WNW | 292 10.2 WNW | 295 87.0 69.2
8/29/26 - 2300 71.9 51.2 48 4.7 WNW | 297 8.4 WNW | 288 87.0 69.2
8/29/26 - 2250 71.8 50.4 47 5.6 WNW | 296 9.7 W | 280 87.0 69.2
8/29/26 - 2240 70.1 50.8 50 5.0 NNW | 338 7.4 NW | 318 87.0 69.2
8/29/26 - 2230 69.9 50.5 50 4.6 NNW | 335 8.3 NNW | 329 87.0 69.2
8/29/26 - 2220 70.7 50.6 49 4.6 NNW | 342 8.0 WNW | 303 87.0 69.2
8/29/26 - 2210 71.1 49.8 47 5.1 NW | 314 10.2 NW | 311 87.0 69.2
8/29/26 - 2200 70.2 50.6 50 3.6 NW | 309 8.0 NW | 311 87.0 69.2
8/29/26 - 2150 69.4 51.7 53 3.6 W | 270 6.1 W | 268 87.0 69.2
8/29/26 - 2140 69.6 51.8 53 4.9 W | 266 7.1 W | 276 87.0 69.4
8/29/26 - 2130 69.8 51.8 53 4.9 W | 268 6.8 W | 275 87.0 69.7
8/29/26 - 2120 70.0 51.6 52 3.8 W | 274 5.4 W | 280 87.0 69.8
Max 83.0 51.8 53 14.9 - 25.6 - 87.0 70.9
Avg 73.7 46.3 38 8.8 - 14.9 - - -
Min 68.4 37.1 28 2.4 - 5.4 - 71.3 68.3